sensor_id;sensor_type;location;lat;lon;timestamp;pressure;altitude;pressure_sealevel;temperature;humidity
55914;BME280;58179;48.776;9.124;2023-04-07T00:00:11;97353.44;;;6.94;100.00
55914;BME280;58179;48.776;9.124;2023-04-07T00:02:39;97343.13;;;6.92;100.00
55914;BME280;58179;48.776;9.124;2023-04-07T00:05:07;97355.03;;;6.95;100.00
55914;BME280;58179;48.776;9.124;2023-04-07T00:07:33;97349.09;;;6.99;100.00
55914;BME280;58179;48.776;9.124;2023-04-07T00:09:59;97345.44;;;7.00;100.00
55914;BME280;58179;48.776;9.124;2023-04-07T00:12:25;97346.72;;;6.98;100.00
55914;BME280;58179;48.776;9.124;2023-04-07T00:14:51;97340.41;;;6.99;100.00
55914;BME280;58179;48.776;9.124;2023-04-07T00:17:16;97343.81;;;6.99;100.00
55914;BME280;58179;48.776;9.124;2023-04-07T00:19:44;97336.97;;;6.98;100.00
55914;BME280;58179;48.776;9.124;2023-04-07T00:22:10;97335.69;;;7.01;100.00
55914;BME280;58179;48.776;9.124;2023-04-07T00:24:35;97342.69;;;7.07;100.00
55914;BME280;58179;48.776;9.124;2023-04-07T00:27:01;97331.25;;;7.02;100.00
55914;BME280;58179;48.776;9.124;2023-04-07T00:29:27;97331.38;;;6.95;100.00
55914;BME280;58179;48.776;9.124;2023-04-07T00:31:53;97323.47;;;6.95;100.00
55914;BME280;58179;48.776;9.124;2023-04-07T00:34:19;97322.09;;;6.92;100.00
55914;BME280;58179;48.776;9.124;2023-04-07T00:36:46;97325.88;;;6.96;100.00
55914;BME280;58179;48.776;9.124;2023-04-07T00:39:17;97317.88;;;6.91;100.00
55914;BME280;58179;48.776;9.124;2023-04-07T00:41:43;97315.25;;;6.91;100.00
55914;BME280;58179;48.776;9.124;2023-04-07T00:44:10;97305.28;;;6.93;100.00
55914;BME280;58179;48.776;9.124;2023-04-07T00:46:36;97300.00;;;6.93;100.00
55914;BME280;58179;48.776;9.124;2023-04-07T00:49:02;97302.88;;;6.92;100.00
55914;BME280;58179;48.776;9.124;2023-04-07T00:51:28;97301.97;;;6.98;100.00
55914;BME280;58179;48.776;9.124;2023-04-07T00:53:57;97295.66;;;6.87;100.00
55914;BME280;58179;48.776;9.124;2023-04-07T00:56:23;97300.81;;;6.82;100.00
55914;BME280;58179;48.776;9.124;2023-04-07T00:58:49;97299.00;;;6.83;100.00
55914;BME280;58179;48.776;9.124;2023-04-07T01:01:21;97292.47;;;6.85;100.00
55914;BME280;58179;48.776;9.124;2023-04-07T01:03:55;97285.59;;;6.84;100.00
55914;BME280;58179;48.776;9.124;2023-04-07T01:06:27;97281.38;;;6.83;100.00
55914;BME280;58179;48.776;9.124;2023-04-07T01:09:02;97278.28;;;6.86;100.00
55914;BME280;58179;48.776;9.124;2023-04-07T01:11:35;97275.06;;;6.84;100.00
55914;BME280;58179;48.776;9.124;2023-04-07T01:14:05;97275.53;;;6.81;100.00
55914;BME280;58179;48.776;9.124;2023-04-07T01:16:38;97278.75;;;6.72;100.00
55914;BME280;58179;48.776;9.124;2023-04-07T01:19:13;97264.56;;;6.73;100.00
55914;BME280;58179;48.776;9.124;2023-04-07T01:21:42;97265.34;;;6.61;100.00
55914;BME280;58179;48.776;9.124;2023-04-07T01:24:33;97257.94;;;6.58;100.00
55914;BME280;58179;48.776;9.124;2023-04-07T01:27:17;97261.13;;;6.60;100.00
55914;BME280;58179;48.776;9.124;2023-04-07T01:29:47;97262.97;;;6.60;100.00
55914;BME280;58179;48.776;9.124;2023-04-07T01:32:17;97257.34;;;6.45;100.00
55914;BME280;58179;48.776;9.124;2023-04-07T01:34:47;97252.22;;;6.38;100.00
55914;BME280;58179;48.776;9.124;2023-04-07T01:37:14;97253.22;;;6.37;100.00
55914;BME280;58179;48.776;9.124;2023-04-07T01:39:41;97249.91;;;6.42;100.00
55914;BME280;58179;48.776;9.124;2023-04-07T01:42:07;97244.53;;;6.37;100.00
55914;BME280;58179;48.776;9.124;2023-04-07T01:44:34;97249.34;;;6.40;100.00
55914;BME280;58179;48.776;9.124;2023-04-07T01:47:02;97255.41;;;6.52;100.00
55914;BME280;58179;48.776;9.124;2023-04-07T01:49:29;97245.25;;;6.44;100.00
55914;BME280;58179;48.776;9.124;2023-04-07T01:51:56;97239.28;;;6.48;100.00
55914;BME280;58179;48.776;9.124;2023-04-07T01:54:23;97234.03;;;6.37;100.00
55914;BME280;58179;48.776;9.124;2023-04-07T01:56:50;97237.91;;;6.34;100.00
55914;BME280;58179;48.776;9.124;2023-04-07T01:59:16;97237.09;;;6.22;100.00
55914;BME280;58179;48.776;9.124;2023-04-07T02:01:42;97225.22;;;6.19;100.00
55914;BME280;58179;48.776;9.124;2023-04-07T02:04:15;97230.34;;;6.26;100.00
55914;BME280;58179;48.776;9.124;2023-04-07T02:06:52;97233.09;;;6.19;100.00
55914;BME280;58179;48.776;9.124;2023-04-07T02:09:21;97226.22;;;6.18;100.00
55914;BME280;58179;48.776;9.124;2023-04-07T02:11:50;97224.63;;;6.17;100.00
55914;BME280;58179;48.776;9.124;2023-04-07T02:14:17;97219.25;;;6.12;100.00
55914;BME280;58179;48.776;9.124;2023-04-07T02:16:46;97216.53;;;6.07;100.00
55914;BME280;58179;48.776;9.124;2023-04-07T02:19:14;97224.88;;;6.16;100.00
55914;BME280;58179;48.776;9.124;2023-04-07T02:21:41;97218.72;;;6.22;100.00
55914;BME280;58179;48.776;9.124;2023-04-07T02:24:10;97214.13;;;6.17;100.00
55914;BME280;58179;48.776;9.124;2023-04-07T02:26:36;97212.19;;;6.13;100.00
55914;BME280;58179;48.776;9.124;2023-04-07T02:29:03;97221.31;;;6.10;100.00
55914;BME280;58179;48.776;9.124;2023-04-07T02:31:29;97210.31;;;6.02;100.00
55914;BME280;58179;48.776;9.124;2023-04-07T02:33:55;97209.66;;;6.06;100.00
55914;BME280;58179;48.776;9.124;2023-04-07T02:36:22;97208.84;;;6.06;100.00
55914;BME280;58179;48.776;9.124;2023-04-07T02:38:48;97194.81;;;6.12;100.00
55914;BME280;58179;48.776;9.124;2023-04-07T02:41:14;97203.84;;;6.16;100.00
55914;BME280;58179;48.776;9.124;2023-04-07T02:43:40;97199.63;;;6.15;100.00
55914;BME280;58179;48.776;9.124;2023-04-07T02:46:06;97201.66;;;6.25;100.00
55914;BME280;58179;48.776;9.124;2023-04-07T02:48:32;97201.56;;;6.31;100.00
55914;BME280;58179;48.776;9.124;2023-04-07T02:50:58;97200.66;;;6.37;100.00
55914;BME280;58179;48.776;9.124;2023-04-07T02:53:25;97192.06;;;6.42;100.00
55914;BME280;58179;48.776;9.124;2023-04-07T02:55:51;97188.78;;;6.46;100.00
55914;BME280;58179;48.776;9.124;2023-04-07T02:58:17;97189.91;;;6.50;100.00
55914;BME280;58179;48.776;9.124;2023-04-07T03:00:43;97190.59;;;6.46;100.00
55914;BME280;58179;48.776;9.124;2023-04-07T03:03:09;97183.88;;;6.38;100.00
55914;BME280;58179;48.776;9.124;2023-04-07T03:05:35;97186.72;;;6.37;100.00
55914;BME280;58179;48.776;9.124;2023-04-07T03:08:01;97192.44;;;6.45;100.00
55914;BME280;58179;48.776;9.124;2023-04-07T03:10:28;97191.06;;;6.43;100.00
55914;BME280;58179;48.776;9.124;2023-04-07T03:12:54;97185.69;;;6.38;100.00
55914;BME280;58179;48.776;9.124;2023-04-07T03:15:20;97192.88;;;6.31;100.00
55914;BME280;58179;48.776;9.124;2023-04-07T03:17:46;97187.06;;;6.29;100.00
55914;BME280;58179;48.776;9.124;2023-04-07T03:20:12;97185.09;;;6.24;100.00
55914;BME280;58179;48.776;9.124;2023-04-07T03:22:38;97178.38;;;6.28;100.00
55914;BME280;58179;48.776;9.124;2023-04-07T03:25:04;97173.91;;;6.29;100.00
55914;BME280;58179;48.776;9.124;2023-04-07T03:27:32;97180.88;;;6.35;100.00
55914;BME280;58179;48.776;9.124;2023-04-07T03:29:57;97176.66;;;6.34;100.00
55914;BME280;58179;48.776;9.124;2023-04-07T03:32:25;97178.03;;;6.36;100.00
55914;BME280;58179;48.776;9.124;2023-04-07T03:34:51;97166.69;;;6.24;100.00
55914;BME280;58179;48.776;9.124;2023-04-07T03:37:16;97167.38;;;6.19;100.00
55914;BME280;58179;48.776;9.124;2023-04-07T03:39:42;97166.16;;;6.22;100.00
55914;BME280;58179;48.776;9.124;2023-04-07T03:42:08;97166.03;;;6.29;100.00
55914;BME280;58179;48.776;9.124;2023-04-07T03:44:35;97167.41;;;6.31;100.00
55914;BME280;58179;48.776;9.124;2023-04-07T03:47:01;97161.09;;;6.32;100.00
55914;BME280;58179;48.776;9.124;2023-04-07T03:49:28;97161.22;;;6.37;100.00
55914;BME280;58179;48.776;9.124;2023-04-07T03:51:55;97162.91;;;6.32;100.00
55914;BME280;58179;48.776;9.124;2023-04-07T03:54:21;97163.28;;;6.24;100.00
55914;BME280;58179;48.776;9.124;2023-04-07T03:56:47;97158.81;;;6.24;100.00
55914;BME280;58179;48.776;9.124;2023-04-07T03:59:13;97155.16;;;6.25;100.00
55914;BME280;58179;48.776;9.124;2023-04-07T04:01:40;97155.41;;;6.24;100.00
55914;BME280;58179;48.776;9.124;2023-04-07T04:04:06;97159.88;;;6.23;100.00
55914;BME280;58179;48.776;9.124;2023-04-07T04:06:32;97159.59;;;6.25;100.00
55914;BME280;58179;48.776;9.124;2023-04-07T04:08:58;97156.31;;;6.29;100.00
55914;BME280;58179;48.776;9.124;2023-04-07T04:11:24;97153.91;;;6.28;100.00
55914;BME280;58179;48.776;9.124;2023-04-07T04:13:50;97160.41;;;6.25;100.00
55914;BME280;58179;48.776;9.124;2023-04-07T04:16:16;97157.22;;;6.23;100.00
55914;BME280;58179;48.776;9.124;2023-04-07T04:18:44;97155.63;;;6.22;100.00
55914;BME280;58179;48.776;9.124;2023-04-07T04:21:09;97150.38;;;6.22;100.00
55914;BME280;58179;48.776;9.124;2023-04-07T04:23:35;97150.59;;;6.20;100.00
55914;BME280;58179;48.776;9.124;2023-04-07T04:26:01;97143.75;;;6.19;100.00
55914;BME280;58179;48.776;9.124;2023-04-07T04:28:28;97142.59;;;6.15;100.00
55914;BME280;58179;48.776;9.124;2023-04-07T04:30:56;97143.06;;;6.12;100.00
55914;BME280;58179;48.776;9.124;2023-04-07T04:33:22;97136.78;;;6.13;100.00
55914;BME280;58179;48.776;9.124;2023-04-07T04:35:49;97145.25;;;6.15;100.00
55914;BME280;58179;48.776;9.124;2023-04-07T04:38:15;97150.59;;;6.20;100.00
55914;BME280;58179;48.776;9.124;2023-04-07T04:40:41;97146.69;;;6.11;100.00
55914;BME280;58179;48.776;9.124;2023-04-07T04:43:07;97143.75;;;6.08;100.00
55914;BME280;58179;48.776;9.124;2023-04-07T04:45:35;97147.63;;;6.05;100.00
55914;BME280;58179;48.776;9.124;2023-04-07T04:48:01;97147.41;;;6.07;100.00
55914;BME280;58179;48.776;9.124;2023-04-07T04:50:27;97146.50;;;6.01;100.00
55914;BME280;58179;48.776;9.124;2023-04-07T04:52:54;97147.25;;;6.02;100.00
55914;BME280;58179;48.776;9.124;2023-04-07T04:55:20;97136.41;;;5.98;100.00
55914;BME280;58179;48.776;9.124;2023-04-07T04:57:46;97144.31;;;5.98;100.00
55914;BME280;58179;48.776;9.124;2023-04-07T05:00:14;97149.19;;;5.95;100.00
55914;BME280;58179;48.776;9.124;2023-04-07T05:02:41;97153.53;;;5.89;100.00
55914;BME280;58179;48.776;9.124;2023-04-07T05:05:08;97148.88;;;5.91;100.00
55914;BME280;58179;48.776;9.124;2023-04-07T05:07:34;97154.13;;;5.91;100.00
55914;BME280;58179;48.776;9.124;2023-04-07T05:10:03;97158.44;;;5.86;100.00
55914;BME280;58179;48.776;9.124;2023-04-07T05:12:29;97154.19;;;5.84;100.00
55914;BME280;58179;48.776;9.124;2023-04-07T05:14:55;97154.94;;;5.92;100.00
55914;BME280;58179;48.776;9.124;2023-04-07T05:17:21;97161.19;;;5.91;100.00
55914;BME280;58179;48.776;9.124;2023-04-07T05:19:47;97156.75;;;5.91;100.00
55914;BME280;58179;48.776;9.124;2023-04-07T05:22:14;97156.97;;;5.90;100.00
55914;BME280;58179;48.776;9.124;2023-04-07T05:24:40;97164.97;;;5.95;100.00
55914;BME280;58179;48.776;9.124;2023-04-07T05:27:07;97151.16;;;5.99;100.00
55914;BME280;58179;48.776;9.124;2023-04-07T05:29:33;97166.91;;;5.88;100.00
55914;BME280;58179;48.776;9.124;2023-04-07T05:31:59;97154.56;;;5.88;100.00
55914;BME280;58179;48.776;9.124;2023-04-07T05:34:27;97157.78;;;5.90;100.00
55914;BME280;58179;48.776;9.124;2023-04-07T05:36:53;97162.13;;;5.96;100.00
55914;BME280;58179;48.776;9.124;2023-04-07T05:39:19;97156.53;;;6.04;100.00
55914;BME280;58179;48.776;9.124;2023-04-07T05:41:44;97161.34;;;6.07;100.00
55914;BME280;58179;48.776;9.124;2023-04-07T05:44:12;97156.19;;;6.12;100.00
55914;BME280;58179;48.776;9.124;2023-04-07T05:46:38;97158.81;;;6.12;100.00
55914;BME280;58179;48.776;9.124;2023-04-07T05:49:04;97155.16;;;6.13;100.00
55914;BME280;58179;48.776;9.124;2023-04-07T05:51:30;97161.56;;;6.17;100.00
55914;BME280;58179;48.776;9.124;2023-04-07T05:53:57;97161.91;;;6.21;100.00
55914;BME280;58179;48.776;9.124;2023-04-07T05:56:23;97156.88;;;6.19;100.00
55914;BME280;58179;48.776;9.124;2023-04-07T05:58:49;97155.16;;;6.25;100.00
55914;BME280;58179;48.776;9.124;2023-04-07T06:01:16;97165.22;;;6.28;100.00
55914;BME280;58179;48.776;9.124;2023-04-07T06:03:42;97157.13;;;6.30;100.00
55914;BME280;58179;48.776;9.124;2023-04-07T06:06:08;97157.22;;;6.35;100.00
55914;BME280;58179;48.776;9.124;2023-04-07T06:08:34;97163.06;;;6.37;100.00
55914;BME280;58179;48.776;9.124;2023-04-07T06:11:01;97166.59;;;6.42;100.00
55914;BME280;58179;48.776;9.124;2023-04-07T06:13:27;97162.47;;;6.46;100.00
55914;BME280;58179;48.776;9.124;2023-04-07T06:15:54;97163.38;;;6.52;100.00
55914;BME280;58179;48.776;9.124;2023-04-07T06:18:23;97162.22;;;6.59;100.00
55914;BME280;58179;48.776;9.124;2023-04-07T06:20:49;97166.56;;;6.66;100.00
55914;BME280;58179;48.776;9.124;2023-04-07T06:23:15;97162.19;;;6.71;100.00
55914;BME280;58179;48.776;9.124;2023-04-07T06:25:41;97165.19;;;6.75;100.00
55914;BME280;58179;48.776;9.124;2023-04-07T06:28:08;97160.81;;;6.80;100.00
55914;BME280;58179;48.776;9.124;2023-04-07T06:30:34;97160.59;;;6.82;100.00
55914;BME280;58179;48.776;9.124;2023-04-07T06:33:03;97167.78;;;6.86;100.00
55914;BME280;58179;48.776;9.124;2023-04-07T06:35:31;97165.50;;;6.90;100.00
55914;BME280;58179;48.776;9.124;2023-04-07T06:37:57;97166.63;;;6.94;100.00
55914;BME280;58179;48.776;9.124;2023-04-07T06:40:23;97160.66;;;6.98;100.00
55914;BME280;58179;48.776;9.124;2023-04-07T06:42:49;97167.28;;;7.01;100.00
55914;BME280;58179;48.776;9.124;2023-04-07T06:45:17;97160.75;;;7.04;100.00
55914;BME280;58179;48.776;9.124;2023-04-07T06:47:46;97170.56;;;7.08;100.00
55914;BME280;58179;48.776;9.124;2023-04-07T06:50:11;97169.09;;;7.12;100.00
55914;BME280;58179;48.776;9.124;2023-04-07T06:52:39;97160.72;;;7.15;100.00
55914;BME280;58179;48.776;9.124;2023-04-07T06:55:06;97164.72;;;7.18;100.00
55914;BME280;58179;48.776;9.124;2023-04-07T06:57:32;97163.13;;;7.17;100.00
55914;BME280;58179;48.776;9.124;2023-04-07T06:59:58;97162.22;;;7.11;100.00
55914;BME280;58179;48.776;9.124;2023-04-07T07:02:24;97160.31;;;7.07;100.00
55914;BME280;58179;48.776;9.124;2023-04-07T07:04:50;97159.72;;;7.05;100.00
55914;BME280;58179;48.776;9.124;2023-04-07T07:07:16;97167.06;;;7.03;100.00
55914;BME280;58179;48.776;9.124;2023-04-07T07:09:43;97164.41;;;7.03;100.00
55914;BME280;58179;48.776;9.124;2023-04-07T07:12:09;97164.66;;;7.01;100.00
55914;BME280;58179;48.776;9.124;2023-04-07T07:14:35;97155.16;;;7.00;100.00
55914;BME280;58179;48.776;9.124;2023-04-07T07:17:01;97159.09;;;6.86;100.00
55914;BME280;58179;48.776;9.124;2023-04-07T07:19:27;97160.94;;;6.74;100.00
55914;BME280;58179;48.776;9.124;2023-04-07T07:21:53;97155.91;;;6.72;100.00
55914;BME280;58179;48.776;9.124;2023-04-07T07:24:20;97157.16;;;6.70;100.00
55914;BME280;58179;48.776;9.124;2023-04-07T07:26:47;97161.63;;;6.69;100.00
55914;BME280;58179;48.776;9.124;2023-04-07T07:29:13;97166.53;;;6.77;100.00
55914;BME280;58179;48.776;9.124;2023-04-07T07:31:39;97172.00;;;6.87;100.00
55914;BME280;58179;48.776;9.124;2023-04-07T07:34:06;97163.66;;;6.90;100.00
55914;BME280;58179;48.776;9.124;2023-04-07T07:36:32;97166.84;;;6.92;100.00
55914;BME280;58179;48.776;9.124;2023-04-07T07:38:57;97168.44;;;6.93;100.00
55914;BME280;58179;48.776;9.124;2023-04-07T07:41:23;97173.25;;;6.96;100.00
55914;BME280;58179;48.776;9.124;2023-04-07T07:43:50;97167.91;;;6.91;100.00
55914;BME280;58179;48.776;9.124;2023-04-07T07:46:16;97174.41;;;6.89;100.00
55914;BME280;58179;48.776;9.124;2023-04-07T07:48:42;97166.28;;;6.90;100.00
55914;BME280;58179;48.776;9.124;2023-04-07T07:51:08;97175.88;;;6.96;100.00
55914;BME280;58179;48.776;9.124;2023-04-07T07:53:34;97172.31;;;7.03;100.00
55914;BME280;58179;48.776;9.124;2023-04-07T07:56:00;97171.16;;;7.10;100.00
55914;BME280;58179;48.776;9.124;2023-04-07T07:58:26;97166.53;;;7.17;100.00
55914;BME280;58179;48.776;9.124;2023-04-07T08:00:53;97172.16;;;7.21;100.00
55914;BME280;58179;48.776;9.124;2023-04-07T08:03:20;97169.84;;;7.24;100.00
55914;BME280;58179;48.776;9.124;2023-04-07T08:05:48;97166.38;;;7.35;100.00
55914;BME280;58179;48.776;9.124;2023-04-07T08:08:14;97164.25;;;7.49;100.00
55914;BME280;58179;48.776;9.124;2023-04-07T08:10:40;97162.03;;;7.58;100.00
55914;BME280;58179;48.776;9.124;2023-04-07T08:13:06;97168.09;;;7.75;100.00
55914;BME280;58179;48.776;9.124;2023-04-07T08:15:32;97171.56;;;7.92;100.00
55914;BME280;58179;48.776;9.124;2023-04-07T08:17:59;97172.84;;;8.23;100.00
55914;BME280;58179;48.776;9.124;2023-04-07T08:20:30;97175.72;;;8.55;100.00
55914;BME280;58179;48.776;9.124;2023-04-07T08:22:56;97177.63;;;8.81;100.00
55914;BME280;58179;48.776;9.124;2023-04-07T08:25:22;97180.59;;;9.07;100.00
55914;BME280;58179;48.776;9.124;2023-04-07T08:27:48;97186.94;;;9.32;100.00
55914;BME280;58179;48.776;9.124;2023-04-07T08:30:14;97185.22;;;9.43;100.00
55914;BME280;58179;48.776;9.124;2023-04-07T08:32:43;97185.06;;;9.55;100.00
55914;BME280;58179;48.776;9.124;2023-04-07T08:35:11;97188.06;;;9.63;100.00
55914;BME280;58179;48.776;9.124;2023-04-07T08:37:38;97182.09;;;9.73;100.00
55914;BME280;58179;48.776;9.124;2023-04-07T08:40:06;97196.34;;;9.72;100.00
55914;BME280;58179;48.776;9.124;2023-04-07T08:42:33;97192.97;;;9.77;100.00
55914;BME280;58179;48.776;9.124;2023-04-07T08:45:04;97190.34;;;9.77;100.00
55914;BME280;58179;48.776;9.124;2023-04-07T08:47:33;97182.69;;;9.80;100.00
55914;BME280;58179;48.776;9.124;2023-04-07T08:50:01;97182.47;;;9.87;100.00
55914;BME280;58179;48.776;9.124;2023-04-07T08:52:33;97184.69;;;9.68;100.00
55914;BME280;58179;48.776;9.124;2023-04-07T08:55:03;97183.53;;;9.59;100.00
55914;BME280;58179;48.776;9.124;2023-04-07T08:57:32;97189.38;;;9.61;100.00
55914;BME280;58179;48.776;9.124;2023-04-07T08:59:59;97185.53;;;9.74;100.00
55914;BME280;58179;48.776;9.124;2023-04-07T09:02:32;97184.03;;;9.83;100.00
55914;BME280;58179;48.776;9.124;2023-04-07T09:04:58;97185.91;;;10.14;100.00
55914;BME280;58179;48.776;9.124;2023-04-07T09:07:24;97196.69;;;10.39;100.00
55914;BME280;58179;48.776;9.124;2023-04-07T09:09:54;97190.03;;;10.74;100.00
55914;BME280;58179;48.776;9.124;2023-04-07T09:12:20;97193.59;;;11.00;100.00
55914;BME280;58179;48.776;9.124;2023-04-07T09:14:46;97194.94;;;11.02;100.00
55914;BME280;58179;48.776;9.124;2023-04-07T09:17:12;97192.28;;;10.97;100.00
55914;BME280;58179;48.776;9.124;2023-04-07T09:19:38;97193.84;;;10.98;100.00
55914;BME280;58179;48.776;9.124;2023-04-07T09:22:04;97188.34;;;11.05;100.00
55914;BME280;58179;48.776;9.124;2023-04-07T09:24:30;97193.28;;;10.91;100.00
55914;BME280;58179;48.776;9.124;2023-04-07T09:27:12;97192.84;;;11.04;100.00
55914;BME280;58179;48.776;9.124;2023-04-07T09:29:39;97187.59;;;11.19;100.00
55914;BME280;58179;48.776;9.124;2023-04-07T09:32:05;97190.06;;;11.46;100.00
55914;BME280;58179;48.776;9.124;2023-04-07T09:34:34;97189.59;;;11.64;100.00
55914;BME280;58179;48.776;9.124;2023-04-07T09:37:01;97184.88;;;11.97;100.00
55914;BME280;58179;48.776;9.124;2023-04-07T09:39:28;97188.34;;;12.08;100.00
55914;BME280;58179;48.776;9.124;2023-04-07T09:41:54;97187.25;;;12.19;100.00
55914;BME280;58179;48.776;9.124;2023-04-07T09:44:22;97194.41;;;12.03;100.00
55914;BME280;58179;48.776;9.124;2023-04-07T09:46:51;97181.72;;;12.10;100.00
55914;BME280;58179;48.776;9.124;2023-04-07T09:49:17;97185.66;;;11.92;100.00
55914;BME280;58179;48.776;9.124;2023-04-07T09:51:53;97196.25;;;11.77;100.00
55914;BME280;58179;48.776;9.124;2023-04-07T09:54:32;97186.66;;;11.56;100.00
55914;BME280;58179;48.776;9.124;2023-04-07T09:57:00;97194.31;;;11.42;100.00
55914;BME280;58179;48.776;9.124;2023-04-07T09:59:29;97189.75;;;11.28;100.00
55914;BME280;58179;48.776;9.124;2023-04-07T10:01:55;97195.81;;;11.18;100.00
55914;BME280;58179;48.776;9.124;2023-04-07T10:04:22;97197.34;;;11.09;100.00
55914;BME280;58179;48.776;9.124;2023-04-07T10:06:48;97190.69;;;11.06;100.00
55914;BME280;58179;48.776;9.124;2023-04-07T10:09:15;97197.06;;;11.05;100.00
55914;BME280;58179;48.776;9.124;2023-04-07T10:11:42;97200.78;;;11.09;100.00
55914;BME280;58179;48.776;9.124;2023-04-07T10:14:09;97189.88;;;11.01;100.00
55914;BME280;58179;48.776;9.124;2023-04-07T10:16:37;97196.78;;;10.97;100.00
55914;BME280;58179;48.776;9.124;2023-04-07T10:19:05;97195.19;;;10.96;100.00
55914;BME280;58179;48.776;9.124;2023-04-07T10:21:36;97190.38;;;10.93;100.00
55914;BME280;58179;48.776;9.124;2023-04-07T10:24:13;97195.44;;;10.94;100.00
55914;BME280;58179;48.776;9.124;2023-04-07T10:26:46;97197.34;;;11.04;100.00
55914;BME280;58179;48.776;9.124;2023-04-07T10:29:15;97195.75;;;11.08;100.00
55914;BME280;58179;48.776;9.124;2023-04-07T10:31:44;97202.41;;;11.10;100.00
55914;BME280;58179;48.776;9.124;2023-04-07T10:34:11;97196.03;;;11.11;100.00
55914;BME280;58179;48.776;9.124;2023-04-07T10:37:07;97190.22;;;11.14;100.00
55914;BME280;58179;48.776;9.124;2023-04-07T10:39:34;97191.56;;;11.22;100.00
55914;BME280;58179;48.776;9.124;2023-04-07T10:42:00;97191.63;;;11.32;100.00
55914;BME280;58179;48.776;9.124;2023-04-07T10:44:47;97196.16;;;11.47;100.00
55914;BME280;58179;48.776;9.124;2023-04-07T10:47:16;97185.84;;;11.60;100.00
55914;BME280;58179;48.776;9.124;2023-04-07T10:50:18;97190.38;;;11.70;100.00
55914;BME280;58179;48.776;9.124;2023-04-07T10:52:45;97186.44;;;11.78;100.00
55914;BME280;58179;48.776;9.124;2023-04-07T10:55:35;97192.16;;;11.39;100.00
55914;BME280;58179;48.776;9.124;2023-04-07T10:58:20;97191.25;;;11.03;100.00
55914;BME280;58179;48.776;9.124;2023-04-07T11:01:18;97188.66;;;11.23;100.00
55914;BME280;58179;48.776;9.124;2023-04-07T11:03:59;97191.91;;;11.41;100.00
55914;BME280;58179;48.776;9.124;2023-04-07T11:06:25;97195.41;;;11.56;100.00
55914;BME280;58179;48.776;9.124;2023-04-07T11:08:52;97202.28;;;11.57;100.00
55914;BME280;58179;48.776;9.124;2023-04-07T11:11:37;97203.34;;;11.61;100.00
55914;BME280;58179;48.776;9.124;2023-04-07T11:14:04;97205.72;;;11.48;100.00
55914;BME280;58179;48.776;9.124;2023-04-07T11:16:39;97203.81;;;11.43;100.00
55914;BME280;58179;48.776;9.124;2023-04-07T11:19:07;97204.06;;;11.27;100.00
55914;BME280;58179;48.776;9.124;2023-04-07T11:21:33;97207.13;;;11.08;100.00
55914;BME280;58179;48.776;9.124;2023-04-07T11:24:01;97207.09;;;10.98;100.00
55914;BME280;58179;48.776;9.124;2023-04-07T11:26:27;97207.06;;;10.88;100.00
55914;BME280;58179;48.776;9.124;2023-04-07T11:28:55;97207.28;;;10.81;100.00
55914;BME280;58179;48.776;9.124;2023-04-07T11:31:23;97209.09;;;10.76;100.00
55914;BME280;58179;48.776;9.124;2023-04-07T11:33:52;97212.50;;;10.71;100.00
55914;BME280;58179;48.776;9.124;2023-04-07T11:36:28;97215.94;;;10.67;100.00
55914;BME280;58179;48.776;9.124;2023-04-07T11:38:54;97226.72;;;10.60;100.00
55914;BME280;58179;48.776;9.124;2023-04-07T11:41:23;97227.50;;;10.56;100.00
55914;BME280;58179;48.776;9.124;2023-04-07T11:44:03;97229.31;;;10.50;100.00
55914;BME280;58179;48.776;9.124;2023-04-07T11:46:30;97241.84;;;10.28;100.00
55914;BME280;58179;48.776;9.124;2023-04-07T11:49:08;97241.44;;;10.14;100.00
55914;BME280;58179;48.776;9.124;2023-04-07T11:51:36;97246.25;;;9.90;100.00
55914;BME280;58179;48.776;9.124;2023-04-07T11:54:02;97243.72;;;9.79;100.00
55914;BME280;58179;48.776;9.124;2023-04-07T11:56:29;97259.97;;;9.65;100.00
55914;BME280;58179;48.776;9.124;2023-04-07T11:58:55;97259.56;;;9.52;100.00
55914;BME280;58179;48.776;9.124;2023-04-07T12:01:22;97262.69;;;9.27;100.00
55914;BME280;58179;48.776;9.124;2023-04-07T12:03:58;97269.03;;;8.87;100.00
55914;BME280;58179;48.776;9.124;2023-04-07T12:06:28;97263.16;;;8.47;100.00
55914;BME280;58179;48.776;9.124;2023-04-07T12:08:56;97268.56;;;8.24;100.00
55914;BME280;58179;48.776;9.124;2023-04-07T12:11:22;97269.28;;;8.19;100.00
55914;BME280;58179;48.776;9.124;2023-04-07T12:13:49;97263.28;;;8.24;100.00
55914;BME280;58179;48.776;9.124;2023-04-07T12:16:16;97260.06;;;8.33;100.00
55914;BME280;58179;48.776;9.124;2023-04-07T12:18:42;97262.84;;;8.43;100.00
55914;BME280;58179;48.776;9.124;2023-04-07T12:21:08;97256.94;;;8.53;100.00
55914;BME280;58179;48.776;9.124;2023-04-07T12:23:34;97262.59;;;8.62;100.00
55914;BME280;58179;48.776;9.124;2023-04-07T12:26:02;97269.78;;;8.66;100.00
55914;BME280;58179;48.776;9.124;2023-04-07T12:28:28;97266.59;;;8.64;100.00
55914;BME280;58179;48.776;9.124;2023-04-07T12:30:54;97263.69;;;8.66;100.00
55914;BME280;58179;48.776;9.124;2023-04-07T12:33:20;97265.75;;;8.42;100.00
55914;BME280;58179;48.776;9.124;2023-04-07T12:35:46;97262.94;;;8.20;100.00
55914;BME280;58179;48.776;9.124;2023-04-07T12:38:12;97265.59;;;8.20;100.00
55914;BME280;58179;48.776;9.124;2023-04-07T12:40:38;97267.03;;;8.28;100.00
55914;BME280;58179;48.776;9.124;2023-04-07T12:43:05;97265.75;;;8.42;100.00
55914;BME280;58179;48.776;9.124;2023-04-07T12:45:31;97266.19;;;8.39;100.00
55914;BME280;58179;48.776;9.124;2023-04-07T12:47:58;97264.31;;;8.23;100.00
55914;BME280;58179;48.776;9.124;2023-04-07T12:50:25;97258.31;;;8.10;100.00
55914;BME280;58179;48.776;9.124;2023-04-07T12:52:51;97257.41;;;8.05;100.00
55914;BME280;58179;48.776;9.124;2023-04-07T12:55:18;97248.66;;;8.16;100.00
55914;BME280;58179;48.776;9.124;2023-04-07T12:57:44;97248.13;;;8.31;100.00
55914;BME280;58179;48.776;9.124;2023-04-07T13:00:12;97254.06;;;8.38;100.00